createdAt,value
2019-05-22T00:02:18.920Z,11.40
2019-05-22T00:05:10.708Z,11.30
2019-05-22T00:07:43.266Z,11.40
2019-05-22T00:10:18.817Z,11.40
2019-05-22T00:12:49.577Z,11.30
2019-05-22T00:15:21.630Z,11.40
2019-05-22T00:17:51.771Z,11.30
2019-05-22T00:20:23.292Z,11.40
2019-05-22T00:22:53.707Z,11.40
2019-05-22T00:25:25.895Z,11.40
2019-05-22T00:27:56.616Z,11.40
2019-05-22T00:30:28.803Z,11.40
2019-05-22T00:33:00.371Z,11.40
2019-05-22T00:35:31.322Z,11.40
2019-05-22T00:38:02.831Z,11.40
2019-05-22T00:40:34.830Z,11.40
2019-05-22T00:43:13.405Z,11.40
2019-05-22T00:45:37.515Z,11.40
2019-05-22T00:48:07.680Z,11.40
2019-05-22T00:50:40.616Z,11.40
2019-05-22T00:53:12.143Z,11.40
2019-05-22T00:55:49.016Z,11.40
2019-05-22T00:58:20.885Z,11.40
2019-05-22T01:00:52.841Z,11.40
2019-05-22T01:03:24.817Z,11.30
2019-05-22T01:05:57.714Z,11.30
2019-05-22T01:08:28.823Z,11.30
2019-05-22T01:11:00.888Z,11.30
2019-05-22T01:13:31.030Z,11.30
2019-05-22T01:16:02.530Z,11.30
2019-05-22T01:18:33.128Z,11.30
2019-05-22T01:21:04.647Z,11.20
2019-05-22T01:23:36.847Z,11.30
2019-05-22T01:26:09.462Z,11.20
2019-05-22T01:28:40.049Z,11.30
2019-05-22T01:31:12.578Z,11.30
2019-05-22T01:33:44.345Z,11.30
2019-05-22T01:36:15.958Z,11.30
2019-05-22T01:38:45.943Z,11.30
2019-05-22T01:41:23.152Z,11.30
2019-05-22T01:43:55.123Z,11.30
2019-05-22T01:46:28.008Z,11.30
2019-05-22T01:49:01.233Z,11.30
2019-05-22T01:51:31.199Z,11.30
2019-05-22T01:54:02.625Z,11.30
2019-05-22T01:56:34.583Z,11.20
2019-05-22T01:59:04.748Z,11.30
2019-05-22T02:01:37.584Z,11.30
2019-05-22T02:04:07.986Z,11.30
2019-05-22T02:06:39.493Z,11.30
2019-05-22T02:09:21.528Z,11.30
2019-05-22T02:11:57.887Z,11.30
2019-05-22T02:14:30.347Z,11.30
2019-05-22T02:17:01.376Z,11.40
2019-05-22T02:19:31.521Z,11.40
2019-05-22T02:22:01.681Z,11.30
2019-05-22T02:24:31.864Z,11.30
2019-05-22T02:27:02.856Z,11.30
2019-05-22T02:29:33.257Z,11.30
2019-05-22T02:32:04.801Z,11.30
2019-05-22T02:34:35.698Z,11.30
2019-05-22T02:37:07.684Z,11.30
2019-05-22T02:39:37.984Z,11.30
2019-05-22T02:42:12.236Z,11.30
2019-05-22T02:44:45.303Z,11.20
2019-05-22T02:47:20.804Z,11.20
2019-05-22T02:49:50.119Z,11.20
2019-05-22T02:52:22.043Z,11.20
2019-05-22T02:54:52.284Z,11.20
2019-05-22T02:57:23.351Z,11.20
2019-05-22T02:59:53.756Z,11.20
2019-05-22T03:02:24.381Z,11.20
2019-05-22T03:04:58.864Z,11.20
2019-05-22T03:07:30.767Z,11.20
2019-05-22T03:10:02.233Z,11.20
2019-05-22T03:12:36.093Z,11.20
2019-05-22T03:15:14.605Z,11.20
2019-05-22T03:17:45.357Z,11.10
2019-05-22T03:20:18.725Z,11.10
2019-05-22T03:23:00.938Z,11.10
2019-05-22T03:25:33.131Z,11.10
2019-05-22T03:28:04.479Z,11.10
2019-05-22T03:30:38.059Z,11.10
2019-05-22T03:33:08.103Z,11.10
2019-05-22T03:35:46.920Z,11.10
2019-05-22T03:38:18.998Z,11.00
2019-05-22T03:40:51.390Z,11.00
2019-05-22T03:43:28.355Z,11.00
2019-05-22T03:46:01.402Z,11.00
2019-05-22T03:48:36.278Z,11.00
2019-05-22T03:51:13.578Z,11.00
2019-05-22T03:53:44.577Z,11.00
2019-05-22T03:56:16.316Z,11.00
2019-05-22T03:58:47.995Z,11.00
2019-05-22T04:01:19.366Z,11.00
2019-05-22T04:03:49.514Z,11.00
2019-05-22T04:06:20.864Z,11.00
2019-05-22T04:08:52.718Z,11.00
2019-05-22T04:11:24.574Z,11.00
2019-05-22T04:13:54.459Z,11.00
2019-05-22T04:16:24.750Z,10.90
2019-05-22T04:18:56.965Z,11.00
2019-05-22T04:21:27.326Z,11.00
2019-05-22T04:23:57.218Z,11.00
2019-05-22T04:26:28.352Z,11.00
2019-05-22T04:28:59.902Z,11.00
2019-05-22T04:31:42.224Z,11.00
2019-05-22T04:34:12.675Z,11.00
2019-05-22T04:36:43.704Z,11.00
2019-05-22T04:39:21.632Z,11.10
2019-05-22T04:41:52.659Z,11.00
2019-05-22T04:44:23.000Z,11.10
2019-05-22T04:46:53.317Z,11.00
2019-05-22T04:49:24.039Z,11.00
2019-05-22T04:51:54.651Z,11.00
2019-05-22T04:54:24.630Z,11.10
2019-05-22T04:56:54.949Z,11.10
2019-05-22T04:59:25.673Z,11.20
2019-05-22T05:01:55.488Z,11.20
2019-05-22T05:04:25.784Z,11.20
2019-05-22T05:06:56.284Z,11.10
2019-05-22T05:09:26.406Z,11.20
2019-05-22T05:11:56.470Z,11.30
2019-05-22T05:14:26.546Z,11.30
2019-05-22T05:16:58.268Z,11.30
2019-05-22T05:19:28.096Z,11.30
2019-05-22T05:21:58.392Z,11.40
2019-05-22T05:24:28.242Z,11.30
2019-05-22T05:26:59.271Z,11.30
2019-05-22T05:29:30.467Z,11.40
2019-05-22T05:32:00.973Z,11.30
2019-05-22T05:34:39.760Z,11.30
2019-05-22T05:37:10.041Z,11.50
2019-05-22T05:39:44.141Z,11.60
2019-05-22T05:42:14.399Z,11.60
2019-05-22T05:44:44.304Z,11.60
2019-05-22T05:47:14.947Z,11.50
2019-05-22T05:49:45.332Z,11.50
2019-05-22T05:52:16.161Z,11.70
2019-05-22T05:54:47.752Z,11.60
2019-05-22T05:57:39.047Z,11.60
2019-05-22T06:00:18.440Z,11.60
2019-05-22T06:02:56.434Z,11.70
2019-05-22T06:05:20.163Z,11.60
2019-05-22T06:07:51.060Z,11.50
2019-05-22T06:10:30.205Z,11.60
2019-05-22T06:13:01.621Z,11.60
2019-05-22T06:15:47.909Z,11.70
2019-05-22T06:18:35.135Z,11.70
2019-05-22T06:21:07.215Z,11.70
2019-05-22T06:23:44.013Z,11.70
2019-05-22T06:26:19.739Z,11.70
2019-05-22T06:28:51.741Z,11.70
2019-05-22T06:31:40.141Z,11.80
2019-05-22T06:34:10.557Z,11.90
2019-05-22T06:36:41.039Z,11.80
2019-05-22T06:39:11.845Z,11.70
2019-05-22T06:41:43.044Z,11.70
2019-05-22T06:44:28.598Z,11.80
2019-05-22T06:46:58.388Z,11.80
2019-05-22T06:49:36.393Z,11.90
2019-05-22T06:52:08.118Z,12.10
2019-05-22T06:54:38.902Z,12.20
2019-05-22T06:57:12.357Z,12.30
2019-05-22T06:59:43.387Z,12.30
2019-05-22T07:02:17.083Z,12.40
2019-05-22T07:04:47.346Z,12.40
2019-05-22T07:07:18.268Z,12.60
2019-05-22T07:09:48.472Z,12.60
2019-05-22T07:12:20.495Z,12.70
2019-05-22T07:15:06.747Z,12.80
2019-05-22T07:17:37.913Z,12.90
2019-05-22T07:20:08.547Z,12.90
2019-05-22T07:22:38.911Z,13.00
2019-05-22T07:25:10.749Z,13.10
2019-05-22T07:27:41.803Z,12.90
2019-05-22T07:30:12.946Z,13.30
2019-05-22T07:32:43.134Z,13.50
2019-05-22T07:35:13.375Z,13.80
2019-05-22T07:37:45.287Z,13.50
2019-05-22T07:40:16.719Z,13.60
2019-05-22T07:42:46.877Z,13.60
2019-05-22T07:45:17.380Z,14.10
2019-05-22T07:47:48.228Z,14.10
2019-05-22T07:50:19.420Z,14.30
2019-05-22T07:52:50.707Z,14.50
2019-05-22T07:55:22.264Z,14.90
2019-05-22T07:58:07.508Z,15.60
2019-05-22T08:00:37.767Z,16.20
2019-05-22T08:03:09.228Z,16.20
2019-05-22T08:05:41.279Z,16.80
2019-05-22T08:08:13.150Z,17.10
2019-05-22T08:10:43.793Z,18.30
2019-05-22T08:13:14.667Z,18.80
2019-05-22T08:15:47.622Z,18.50
2019-05-22T08:18:17.474Z,19.20
2019-05-22T08:20:47.616Z,21.20
2019-05-22T08:23:19.613Z,22.00
2019-05-22T08:25:49.524Z,20.70
2019-05-22T08:28:20.076Z,20.10
2019-05-22T08:30:50.390Z,19.40
2019-05-22T08:33:22.208Z,18.60
2019-05-22T08:35:52.884Z,17.10
2019-05-22T08:38:28.625Z,16.80
2019-05-22T08:41:00.768Z,19.00
2019-05-22T08:43:52.335Z,19.20
2019-05-22T08:46:05.831Z,20.00
2019-05-22T08:48:38.141Z,23.20
2019-05-22T08:51:08.657Z,23.30
2019-05-22T08:53:47.583Z,22.70
2019-05-22T08:56:11.802Z,22.60
2019-05-22T08:58:42.272Z,23.80
2019-05-22T09:01:13.111Z,24.40
2019-05-22T09:03:43.479Z,23.50
2019-05-22T09:06:13.881Z,21.30
2019-05-22T09:08:43.971Z,20.40
2019-05-22T09:11:13.859Z,22.90
2019-05-22T09:13:43.760Z,23.20
2019-05-22T09:16:14.430Z,25.70
2019-05-22T09:18:44.380Z,27.20
2019-05-22T09:21:15.049Z,27.70
2019-05-22T09:23:45.648Z,25.30
2019-05-22T09:26:15.600Z,23.00
2019-05-22T09:28:45.764Z,24.20
2019-05-22T09:31:15.582Z,26.10
2019-05-22T09:33:45.660Z,26.20
2019-05-22T09:36:15.734Z,25.30
2019-05-22T09:38:45.738Z,24.30
2019-05-22T09:41:15.725Z,26.40
2019-05-22T09:43:45.956Z,27.70
2019-05-22T09:46:16.652Z,28.00
2019-05-22T09:48:46.806Z,26.50
2019-05-22T09:51:17.887Z,27.30
2019-05-22T09:53:49.565Z,25.60
2019-05-22T09:56:20.263Z,26.60
2019-05-22T09:58:50.606Z,25.50
2019-05-22T10:01:20.798Z,25.90
2019-05-22T10:03:50.901Z,26.80
2019-05-22T10:06:21.860Z,26.50
2019-05-22T10:08:51.964Z,27.40
2019-05-22T10:11:22.118Z,24.00
2019-05-22T10:13:52.431Z,25.60
2019-05-22T10:16:22.422Z,24.60
2019-05-22T10:18:53.600Z,23.80
2019-05-22T10:21:24.232Z,25.70
2019-05-22T10:23:55.837Z,24.50
2019-05-22T10:26:26.214Z,24.80
2019-05-22T10:28:57.223Z,23.90
2019-05-22T10:31:27.373Z,24.50
2019-05-22T10:33:57.282Z,25.00
2019-05-22T10:36:28.496Z,23.70
2019-05-22T10:38:58.565Z,22.20
2019-05-22T10:41:28.541Z,22.20
2019-05-22T10:43:58.598Z,21.50
2019-05-22T10:46:28.700Z,21.70
2019-05-22T10:48:59.739Z,21.70
2019-05-22T10:51:30.153Z,21.90
2019-05-22T10:54:00.283Z,21.30
2019-05-22T10:56:30.331Z,21.10
2019-05-22T10:59:01.692Z,20.50
2019-05-22T11:01:32.355Z,20.90
2019-05-22T11:04:04.898Z,20.90
2019-05-22T11:06:35.356Z,21.40
2019-05-22T11:09:07.025Z,21.90
2019-05-22T11:11:37.405Z,21.70
2019-05-22T11:14:09.586Z,21.30
2019-05-22T11:16:40.316Z,21.00
2019-05-22T11:19:10.288Z,21.30
2019-05-22T11:21:40.419Z,20.80
2019-05-22T11:24:10.496Z,20.80
2019-05-22T11:26:40.450Z,21.30
2019-05-22T11:29:10.602Z,20.50
2019-05-22T11:31:40.855Z,20.90
2019-05-22T11:34:10.731Z,20.80
2019-05-22T11:36:41.045Z,21.10
2019-05-22T11:39:13.665Z,21.10
2019-05-22T11:41:43.719Z,20.70
2019-05-22T11:44:13.546Z,21.30
2019-05-22T11:46:43.634Z,21.30
2019-05-22T11:49:13.587Z,20.70
2019-05-22T11:51:43.480Z,20.90
2019-05-22T11:54:13.551Z,20.40
2019-05-22T11:56:43.675Z,19.80
2019-05-22T11:59:13.743Z,20.40
2019-05-22T12:01:44.843Z,20.50
2019-05-22T12:04:15.095Z,20.20
2019-05-22T12:06:45.500Z,20.50
2019-05-22T12:09:16.444Z,20.70
2019-05-22T12:11:46.616Z,20.30
2019-05-22T12:14:18.035Z,20.20
2019-05-22T12:16:52.748Z,20.70
2019-05-22T12:19:21.314Z,20.90
2019-05-22T12:21:51.223Z,21.20
2019-05-22T12:24:28.431Z,21.70
2019-05-22T12:26:53.045Z,21.80
2019-05-22T12:29:23.690Z,21.70
2019-05-22T12:31:53.823Z,20.70
2019-05-22T12:34:23.968Z,20.80
2019-05-22T12:36:54.429Z,21.10
2019-05-22T12:39:25.440Z,21.10
2019-05-22T12:41:55.333Z,21.40
2019-05-22T12:44:25.728Z,21.50
2019-05-22T12:46:55.719Z,21.40
2019-05-22T12:49:27.599Z,21.00
2019-05-22T12:51:58.399Z,21.30
2019-05-22T12:54:45.314Z,20.90
2019-05-22T12:57:01.038Z,20.40
2019-05-22T12:59:32.310Z,20.20
2019-05-22T13:02:03.331Z,20.00
2019-05-22T13:04:34.204Z,20.30
2019-05-22T13:07:05.588Z,20.80
2019-05-22T13:09:36.221Z,20.90
2019-05-22T13:12:06.643Z,21.00
2019-05-22T13:14:37.153Z,21.10
2019-05-22T13:17:09.472Z,21.40
2019-05-22T13:19:40.995Z,21.00
2019-05-22T13:22:16.310Z,20.80
2019-05-22T13:24:47.152Z,20.70
2019-05-22T13:27:17.724Z,20.30
2019-05-22T13:29:49.583Z,20.20
2019-05-22T13:32:20.916Z,20.40
2019-05-22T13:34:51.356Z,20.30
2019-05-22T13:37:21.913Z,20.90
2019-05-22T13:39:52.251Z,21.10
2019-05-22T13:42:22.819Z,21.60
2019-05-22T13:44:53.392Z,21.70
2019-05-22T13:47:23.637Z,21.90
2019-05-22T13:49:55.147Z,21.90
2019-05-22T13:52:25.587Z,22.00
2019-05-22T13:54:57.094Z,21.20
2019-05-22T13:57:27.428Z,20.80
2019-05-22T13:59:57.608Z,20.70
2019-05-22T14:02:27.797Z,21.10
2019-05-22T14:04:58.382Z,21.30
2019-05-22T14:07:29.277Z,20.70
2019-05-22T14:09:59.233Z,20.90
2019-05-22T14:12:29.212Z,20.50
2019-05-22T14:14:59.113Z,20.20
2019-05-22T14:17:29.237Z,20.50
2019-05-22T14:19:59.688Z,20.50
2019-05-22T14:22:30.146Z,20.20
2019-05-22T14:25:00.453Z,20.30
2019-05-22T14:27:30.477Z,20.40
2019-05-22T14:30:01.755Z,20.60
2019-05-22T14:32:31.934Z,20.70
2019-05-22T14:35:02.154Z,21.10
2019-05-22T14:37:32.424Z,21.10
2019-05-22T14:40:05.007Z,21.10
2019-05-22T14:42:36.356Z,20.90
2019-05-22T14:45:08.182Z,20.70
2019-05-22T14:47:38.369Z,20.40
2019-05-22T14:50:09.609Z,20.00
2019-05-22T14:52:41.125Z,20.10
2019-05-22T14:55:12.559Z,20.00
2019-05-22T14:57:43.018Z,20.00
2019-05-22T15:00:16.902Z,20.10
2019-05-22T15:02:53.291Z,20.00
2019-05-22T15:05:21.060Z,19.80
2019-05-22T15:07:51.436Z,19.70
2019-05-22T15:10:23.242Z,20.20
2019-05-22T15:12:53.853Z,20.20
2019-05-22T15:15:25.172Z,20.20
2019-05-22T15:17:55.578Z,20.40
2019-05-22T15:20:28.726Z,20.40
2019-05-22T15:22:58.995Z,20.70
2019-05-22T15:25:29.317Z,20.90
2019-05-22T15:28:00.414Z,20.90
2019-05-22T15:30:30.423Z,20.90
2019-05-22T15:33:00.337Z,20.90
2019-05-22T15:35:30.560Z,21.50
2019-05-22T15:38:00.817Z,21.70
2019-05-22T15:40:31.685Z,20.90
2019-05-22T15:43:01.744Z,20.50
2019-05-22T15:45:32.350Z,21.00
2019-05-22T15:48:05.744Z,21.30
2019-05-22T15:50:37.842Z,21.30
2019-05-22T15:53:14.883Z,21.30
2019-05-22T15:55:45.768Z,21.20
2019-05-22T15:58:17.946Z,21.40
2019-05-22T16:00:50.721Z,21.30
2019-05-22T16:03:22.518Z,20.80
2019-05-22T16:05:54.688Z,21.00
2019-05-22T16:08:25.053Z,20.40
2019-05-22T16:11:00.052Z,20.60
2019-05-22T16:13:33.045Z,20.40
2019-05-22T16:16:05.850Z,20.50
2019-05-22T16:18:39.031Z,20.40
2019-05-22T16:21:11.626Z,20.30
2019-05-22T16:23:42.834Z,19.90
2019-05-22T16:26:13.727Z,19.80
2019-05-22T16:28:47.238Z,19.70
2019-05-22T16:31:20.603Z,19.60
2019-05-22T16:33:53.238Z,19.30
2019-05-22T16:36:23.973Z,19.40
2019-05-22T16:38:54.626Z,19.50
2019-05-22T16:41:25.849Z,19.70
2019-05-22T16:43:56.283Z,20.00
2019-05-22T16:46:28.082Z,20.20
2019-05-22T16:48:58.520Z,20.20
2019-05-22T16:51:30.123Z,20.10
2019-05-22T16:54:06.267Z,19.90
2019-05-22T16:56:38.532Z,19.80
2019-05-22T16:59:10.179Z,19.60
2019-05-22T17:01:57.751Z,19.60
2019-05-22T17:04:12.923Z,19.50
2019-05-22T17:06:45.127Z,19.50
2019-05-22T17:09:16.736Z,19.60
2019-05-22T17:11:47.575Z,19.70
2019-05-22T17:14:18.972Z,19.70
2019-05-22T17:16:50.753Z,19.70
2019-05-22T17:19:27.258Z,19.70
2019-05-22T17:21:54.116Z,19.50
2019-05-22T17:24:25.258Z,19.40
2019-05-22T17:26:56.142Z,19.30
2019-05-22T17:29:26.292Z,19.30
2019-05-22T17:31:56.872Z,19.30
2019-05-22T17:34:33.825Z,19.30
2019-05-22T17:37:08.101Z,19.30
2019-05-22T17:39:41.171Z,19.30
2019-05-22T17:42:15.797Z,19.30
2019-05-22T17:44:49.821Z,19.30
2019-05-22T17:47:21.960Z,19.30
2019-05-22T17:49:51.980Z,19.30
2019-05-22T17:52:23.221Z,19.30
2019-05-22T17:54:54.708Z,19.20
2019-05-22T17:57:25.185Z,19.20
2019-05-22T17:59:55.613Z,19.10
2019-05-22T18:02:27.320Z,19.10
2019-05-22T18:04:57.483Z,19.00
2019-05-22T18:07:28.533Z,18.90
2019-05-22T18:09:59.230Z,18.90
2019-05-22T18:12:30.123Z,19.00
2019-05-22T18:15:00.974Z,19.00
2019-05-22T18:17:31.481Z,18.90
2019-05-22T18:20:01.464Z,18.80
2019-05-22T18:22:31.588Z,18.70
2019-05-22T18:25:01.947Z,18.50
2019-05-22T18:27:32.315Z,18.40
2019-05-22T18:30:02.502Z,18.20
2019-05-22T18:32:36.868Z,18.00
2019-05-22T18:35:07.772Z,17.90
2019-05-22T18:37:37.625Z,17.90
2019-05-22T18:40:08.801Z,17.90
2019-05-22T18:42:38.848Z,17.90
2019-05-22T18:45:09.193Z,17.90
2019-05-22T18:47:39.709Z,17.80
2019-05-22T18:50:10.285Z,17.80
2019-05-22T18:52:46.580Z,17.90
2019-05-22T18:55:18.090Z,17.80
2019-05-22T18:57:50.133Z,17.80
2019-05-22T19:00:23.483Z,17.80
2019-05-22T19:02:53.438Z,17.80
2019-05-22T19:05:27.011Z,17.80
2019-05-22T19:07:57.448Z,17.80
2019-05-22T19:10:27.772Z,17.70
2019-05-22T19:12:57.722Z,17.70
2019-05-22T19:15:28.016Z,17.70
2019-05-22T19:17:58.541Z,17.70
2019-05-22T19:20:28.574Z,17.60
2019-05-22T19:23:01.246Z,17.60
2019-05-22T19:25:30.706Z,17.60
2019-05-22T19:28:00.852Z,17.50
2019-05-22T19:30:32.184Z,17.50
2019-05-22T19:33:02.369Z,17.40
2019-05-22T19:35:32.565Z,17.30
2019-05-22T19:38:02.841Z,17.10
2019-05-22T19:40:32.988Z,16.90
2019-05-22T19:43:03.312Z,16.70
2019-05-22T19:45:33.655Z,16.60
2019-05-22T19:48:04.812Z,16.40
2019-05-22T19:50:36.805Z,16.20
2019-05-22T19:53:18.687Z,16.10
2019-05-22T19:55:41.105Z,16.00
2019-05-22T19:58:12.610Z,15.80
2019-05-22T20:00:43.145Z,15.60
2019-05-22T20:03:14.997Z,15.50
2019-05-22T20:05:45.217Z,15.40
2019-05-22T20:08:15.113Z,15.30
2019-05-22T20:10:45.633Z,15.10
2019-05-22T20:13:16.926Z,15.00
2019-05-22T20:15:47.869Z,14.80
2019-05-22T20:18:18.298Z,14.80
2019-05-22T20:20:48.440Z,14.70
2019-05-22T20:23:34.282Z,14.60
2019-05-22T20:25:50.969Z,14.60
2019-05-22T20:28:21.215Z,14.60
2019-05-22T20:30:51.094Z,14.40
2019-05-22T20:33:21.326Z,14.40
2019-05-22T20:35:51.489Z,14.30
2019-05-22T20:38:22.368Z,14.20
2019-05-22T20:40:52.884Z,14.00
2019-05-22T20:43:23.880Z,14.00
2019-05-22T20:45:55.482Z,13.90
2019-05-22T20:48:28.378Z,13.80
2019-05-22T20:50:59.692Z,13.70
2019-05-22T20:53:32.600Z,13.70
2019-05-22T20:56:03.449Z,13.70
2019-05-22T20:58:35.398Z,13.60
2019-05-22T21:01:07.798Z,13.60
2019-05-22T21:03:38.121Z,13.50
2019-05-22T21:06:11.501Z,13.40
2019-05-22T21:08:43.998Z,13.40
2019-05-22T21:11:16.996Z,13.40
2019-05-22T21:13:48.290Z,13.20
2019-05-22T21:16:18.428Z,13.10
2019-05-22T21:18:50.034Z,13.10
2019-05-22T21:21:21.348Z,13.00
2019-05-22T21:23:51.533Z,13.00
2019-05-22T21:26:21.959Z,12.90
2019-05-22T21:28:52.167Z,12.80
2019-05-22T21:31:22.471Z,12.70
2019-05-22T21:33:52.751Z,12.60
2019-05-22T21:36:23.713Z,12.50
2019-05-22T21:38:54.035Z,12.50
2019-05-22T21:41:24.972Z,12.60
2019-05-22T21:43:55.405Z,12.50
2019-05-22T21:46:25.500Z,12.50
2019-05-22T21:48:57.723Z,12.40
2019-05-22T21:51:27.803Z,12.40
2019-05-22T21:53:58.177Z,12.30
2019-05-22T21:56:28.441Z,12.30
2019-05-22T21:58:58.618Z,12.20
2019-05-22T22:01:30.801Z,12.20
2019-05-22T22:04:11.233Z,12.20
2019-05-22T22:06:41.915Z,12.10
2019-05-22T22:09:12.352Z,12.10
2019-05-22T22:11:44.037Z,12.00
2019-05-22T22:14:16.586Z,12.00
2019-05-22T22:16:47.157Z,12.00
2019-05-22T22:19:18.655Z,12.00
2019-05-22T22:21:49.471Z,11.90
2019-05-22T22:24:20.020Z,11.80
2019-05-22T22:26:50.592Z,11.80
2019-05-22T22:29:20.643Z,11.70
2019-05-22T22:31:51.796Z,11.60
2019-05-22T22:34:25.556Z,11.60
2019-05-22T22:36:56.248Z,11.50
2019-05-22T22:39:27.630Z,11.40
2019-05-22T22:41:59.482Z,11.30
2019-05-22T22:44:29.388Z,11.20
2019-05-22T22:47:01.114Z,11.20
2019-05-22T22:49:31.787Z,11.10
2019-05-22T22:52:01.741Z,11.00
2019-05-22T22:54:33.340Z,11.00
2019-05-22T22:57:05.467Z,10.90
2019-05-22T22:59:36.114Z,10.80
2019-05-22T23:02:09.616Z,10.80
2019-05-22T23:04:41.866Z,10.70
2019-05-22T23:07:13.659Z,10.60
2019-05-22T23:09:44.149Z,10.50
2019-05-22T23:12:15.931Z,10.40
2019-05-22T23:14:50.687Z,10.30
2019-05-22T23:17:20.958Z,10.20
2019-05-22T23:19:50.124Z,10.10
2019-05-22T23:22:20.515Z,10.10
2019-05-22T23:24:53.455Z,10.00
2019-05-22T23:27:25.198Z,9.90
2019-05-22T23:29:56.197Z,9.90
2019-05-22T23:32:28.169Z,9.80
2019-05-22T23:34:59.269Z,9.80
2019-05-22T23:37:29.744Z,9.70
2019-05-22T23:40:00.024Z,9.70
2019-05-22T23:42:33.459Z,9.60
2019-05-22T23:45:07.104Z,9.50
2019-05-22T23:47:39.988Z,9.50
2019-05-22T23:50:10.112Z,9.40
2019-05-22T23:52:40.091Z,9.40
2019-05-22T23:55:10.328Z,9.40
2019-05-22T23:57:40.641Z,9.30
